createdAt,value
2018-11-07T00:01:33.282Z,2.13
2018-11-07T00:04:01.245Z,2.33
2018-11-07T00:06:29.272Z,2.00
2018-11-07T00:08:57.147Z,2.37
2018-11-07T00:11:25.011Z,2.80
2018-11-07T00:13:52.909Z,2.43
2018-11-07T00:16:20.775Z,3.60
2018-11-07T00:18:48.653Z,2.33
2018-11-07T00:21:16.527Z,2.30
2018-11-07T00:23:44.343Z,2.63
2018-11-07T00:26:12.193Z,3.73
2018-11-07T00:28:40.028Z,3.50
2018-11-07T00:31:07.861Z,4.03
2018-11-07T00:33:35.703Z,3.87
2018-11-07T00:36:03.531Z,3.90
2018-11-07T00:38:31.390Z,3.40
2018-11-07T00:40:59.234Z,3.73
2018-11-07T00:43:27.075Z,3.80
2018-11-07T00:45:54.904Z,4.23
2018-11-07T00:48:22.799Z,4.27
2018-11-07T00:50:50.838Z,3.63
2018-11-07T00:53:18.667Z,4.20
2018-11-07T00:55:46.482Z,3.17
2018-11-07T00:58:14.384Z,2.60
2018-11-07T01:00:42.180Z,2.83
2018-11-07T01:03:10.020Z,2.00
2018-11-07T01:05:37.861Z,2.60
2018-11-07T01:08:05.820Z,2.50
2018-11-07T01:10:33.991Z,1.97
2018-11-07T01:13:01.823Z,1.90
2018-11-07T01:15:29.934Z,1.67
2018-11-07T01:17:57.758Z,1.90
2018-11-07T01:20:25.578Z,1.73
2018-11-07T01:22:53.402Z,1.50
2018-11-07T01:25:21.258Z,1.53
2018-11-07T01:27:49.095Z,1.13
2018-11-07T01:30:16.926Z,1.20
2018-11-07T01:32:44.751Z,1.23
2018-11-07T01:35:12.584Z,1.20
2018-11-07T01:37:40.410Z,1.00
2018-11-07T01:40:09.489Z,1.20
2018-11-07T01:42:37.477Z,1.20
2018-11-07T01:45:05.883Z,1.20
2018-11-07T01:47:33.716Z,1.40
2018-11-07T01:50:01.548Z,1.30
2018-11-07T01:52:29.440Z,1.00
2018-11-07T01:54:57.280Z,1.27
2018-11-07T01:57:25.117Z,1.33
2018-11-07T01:59:52.948Z,1.10
2018-11-07T02:02:20.865Z,1.07
2018-11-07T02:04:48.716Z,1.17
2018-11-07T02:07:16.609Z,1.30
2018-11-07T02:09:44.452Z,1.10
2018-11-07T02:12:12.351Z,1.03
2018-11-07T02:14:40.335Z,0.90
2018-11-07T02:17:08.633Z,1.10
2018-11-07T02:19:36.760Z,1.90
2018-11-07T02:22:04.847Z,0.70
2018-11-07T02:24:32.686Z,0.87
2018-11-07T02:27:00.547Z,0.83
2018-11-07T02:29:28.599Z,0.80
2018-11-07T02:31:56.460Z,0.77
2018-11-07T02:34:24.322Z,0.77
2018-11-07T02:36:52.359Z,0.80
2018-11-07T02:39:20.216Z,0.70
2018-11-07T02:41:48.077Z,1.40
2018-11-07T02:44:15.933Z,1.07
2018-11-07T02:46:44.811Z,1.03
2018-11-07T02:49:12.671Z,1.10
2018-11-07T02:51:40.499Z,0.93
2018-11-07T02:54:08.332Z,0.80
2018-11-07T02:56:36.175Z,1.03
2018-11-07T02:59:04.038Z,0.93
2018-11-07T03:01:31.897Z,0.77
2018-11-07T03:03:59.732Z,0.90
2018-11-07T03:06:27.630Z,0.93
2018-11-07T03:08:55.527Z,1.00
2018-11-07T03:11:23.409Z,0.83
2018-11-07T03:13:51.466Z,1.20
2018-11-07T03:16:19.470Z,0.90
2018-11-07T03:18:47.653Z,0.87
2018-11-07T03:21:15.484Z,0.90
2018-11-07T03:23:43.333Z,0.80
2018-11-07T03:26:11.200Z,0.70
2018-11-07T03:28:39.095Z,0.80
2018-11-07T03:31:06.946Z,1.27
2018-11-07T03:33:34.784Z,0.67
2018-11-07T03:36:02.619Z,0.80
2018-11-07T03:38:30.479Z,0.57
2018-11-07T03:40:58.318Z,1.00
2018-11-07T03:43:26.172Z,0.80
2018-11-07T03:45:57.880Z,0.70
2018-11-07T03:48:26.147Z,0.90
2018-11-07T03:50:54.035Z,0.70
2018-11-07T03:53:21.933Z,1.33
2018-11-07T03:55:49.733Z,0.87
2018-11-07T03:58:17.570Z,0.70
2018-11-07T04:00:45.406Z,0.77
2018-11-07T04:03:13.271Z,0.70
2018-11-07T04:05:41.127Z,0.90
2018-11-07T04:08:08.946Z,0.77
2018-11-07T04:10:36.812Z,0.90
2018-11-07T04:13:05.044Z,0.80
2018-11-07T04:15:33.017Z,0.80
2018-11-07T04:18:00.858Z,0.90
2018-11-07T04:20:28.699Z,0.70
2018-11-07T04:22:56.587Z,1.03
2018-11-07T04:25:24.428Z,0.80
2018-11-07T04:27:52.299Z,1.17
2018-11-07T04:30:20.144Z,0.80
2018-11-07T04:32:47.965Z,1.23
2018-11-07T04:35:15.804Z,0.87
2018-11-07T04:37:43.640Z,0.90
2018-11-07T04:40:12.679Z,1.23
2018-11-07T04:42:40.820Z,0.90
2018-11-07T04:45:08.707Z,1.37
2018-11-07T04:47:36.535Z,0.87
2018-11-07T04:50:04.734Z,1.23
2018-11-07T04:52:32.552Z,1.00
2018-11-07T04:55:00.435Z,1.00
2018-11-07T04:57:28.807Z,0.90
2018-11-07T04:59:56.672Z,0.90
2018-11-07T05:02:24.506Z,0.80
2018-11-07T05:04:52.442Z,1.10
2018-11-07T05:07:20.312Z,0.87
2018-11-07T05:09:48.139Z,0.73
2018-11-07T05:12:16.021Z,0.83
2018-11-07T05:14:43.868Z,0.60
2018-11-07T05:17:11.696Z,0.60
2018-11-07T05:19:39.532Z,1.83
2018-11-07T05:22:07.406Z,1.40
2018-11-07T05:24:35.225Z,0.90
2018-11-07T05:27:03.539Z,1.00
2018-11-07T05:29:31.392Z,0.67
2018-11-07T05:31:59.279Z,0.70
2018-11-07T05:34:27.112Z,0.87
2018-11-07T05:36:54.959Z,0.63
2018-11-07T05:39:22.815Z,0.80
2018-11-07T05:41:50.667Z,1.00
2018-11-07T05:44:18.508Z,0.80
2018-11-07T05:46:46.348Z,0.70
2018-11-07T05:49:14.282Z,0.83
2018-11-07T05:51:42.083Z,1.80
2018-11-07T05:54:09.923Z,0.80
2018-11-07T05:56:37.756Z,0.60
2018-11-07T05:59:05.931Z,0.80
2018-11-07T06:01:33.770Z,0.70
2018-11-07T06:04:01.604Z,0.60
2018-11-07T06:06:29.444Z,0.70
2018-11-07T06:08:57.287Z,0.90
2018-11-07T06:11:25.120Z,0.83
2018-11-07T06:13:53.089Z,0.60
2018-11-07T06:16:20.978Z,0.80
2018-11-07T06:18:48.799Z,0.93
2018-11-07T06:21:16.683Z,0.50
2018-11-07T06:23:44.553Z,0.80
2018-11-07T06:26:12.403Z,0.80
2018-11-07T06:28:40.238Z,0.60
2018-11-07T06:31:08.157Z,0.90
2018-11-07T06:33:35.984Z,0.53
2018-11-07T06:36:03.819Z,0.93
2018-11-07T06:38:31.651Z,0.70
2018-11-07T06:40:59.486Z,0.93
2018-11-07T06:43:27.338Z,0.70
2018-11-07T06:45:55.179Z,1.30
2018-11-07T06:48:23.052Z,0.70
2018-11-07T06:50:50.909Z,0.73
2018-11-07T06:53:18.754Z,1.27
2018-11-07T06:55:46.665Z,0.90
2018-11-07T06:58:14.523Z,0.60
2018-11-07T07:00:42.389Z,0.80
2018-11-07T07:03:10.283Z,0.90
2018-11-07T07:05:38.117Z,0.70
2018-11-07T07:08:05.943Z,0.73
2018-11-07T07:10:33.785Z,0.90
2018-11-07T07:13:01.638Z,1.57
2018-11-07T07:15:29.537Z,1.00
2018-11-07T07:17:57.389Z,0.77
2018-11-07T07:20:25.248Z,0.97
2018-11-07T07:22:53.067Z,0.90
2018-11-07T07:25:20.893Z,0.83
2018-11-07T07:27:48.727Z,1.07
2018-11-07T07:30:18.988Z,0.70
2018-11-07T07:32:47.215Z,0.90
2018-11-07T07:35:15.507Z,1.17
2018-11-07T07:37:43.331Z,0.83
2018-11-07T07:40:12.927Z,0.60
2018-11-07T07:42:41.740Z,1.23
2018-11-07T07:45:11.557Z,1.00
2018-11-07T07:47:39.616Z,1.20
2018-11-07T07:50:08.642Z,0.73
2018-11-07T07:52:36.611Z,1.03
2018-11-07T07:55:04.499Z,1.07
2018-11-07T07:57:32.332Z,0.87
2018-11-07T08:00:00.156Z,0.90
2018-11-07T08:02:27.987Z,1.10
2018-11-07T08:04:55.824Z,1.03
2018-11-07T08:07:23.799Z,0.93
2018-11-07T08:09:51.632Z,0.87
2018-11-07T08:12:19.472Z,2.27
2018-11-07T08:14:47.321Z,1.10
2018-11-07T08:17:15.179Z,1.80
2018-11-07T08:19:43.025Z,1.30
2018-11-07T08:22:10.918Z,0.80
2018-11-07T08:24:38.767Z,1.10
2018-11-07T08:27:06.595Z,1.27
2018-11-07T08:29:34.448Z,1.73
2018-11-07T08:32:02.421Z,2.20
2018-11-07T08:34:30.262Z,1.40
2018-11-07T08:36:58.314Z,1.07
2018-11-07T08:39:26.276Z,0.90
2018-11-07T08:41:54.099Z,0.60
2018-11-07T08:44:21.924Z,1.00
2018-11-07T08:46:49.758Z,0.77
2018-11-07T08:49:17.603Z,0.90
2018-11-07T08:51:45.456Z,1.30
2018-11-07T08:54:13.276Z,0.70
2018-11-07T08:56:41.121Z,0.83
2018-11-07T08:59:08.952Z,0.80
2018-11-07T09:04:05.319Z,1.10
2018-11-07T09:06:33.772Z,0.70
2018-11-07T09:09:02.584Z,1.10
2018-11-07T09:11:31.033Z,0.70
2018-11-07T09:13:59.671Z,0.97
2018-11-07T09:16:27.647Z,1.73
2018-11-07T09:18:56.160Z,0.90
2018-11-07T09:21:24.603Z,1.20
2018-11-07T09:23:53.052Z,2.03
2018-11-07T09:26:21.683Z,1.10
2018-11-07T09:28:50.316Z,1.13
2018-11-07T09:31:18.144Z,1.30
2018-11-07T09:33:45.980Z,3.27
2018-11-07T09:36:13.824Z,1.30
2018-11-07T09:38:41.678Z,3.00
2018-11-07T09:41:09.503Z,0.90
2018-11-07T09:43:37.397Z,1.07
2018-11-07T09:46:05.328Z,0.80
2018-11-07T09:48:33.161Z,1.20
2018-11-07T09:51:01.534Z,0.87
2018-11-07T09:53:30.003Z,1.30
2018-11-07T09:55:58.635Z,1.70
2018-11-07T09:58:27.274Z,1.43
2018-11-07T10:00:55.972Z,0.93
2018-11-07T10:03:24.694Z,0.90
2018-11-07T10:05:52.947Z,0.97
2018-11-07T10:08:20.781Z,1.30
2018-11-07T10:10:49.059Z,1.13
2018-11-07T10:13:17.282Z,1.07
2018-11-07T10:15:46.037Z,1.67
2018-11-07T10:18:13.882Z,1.63
2018-11-07T10:20:41.851Z,1.73
2018-11-07T10:23:09.643Z,1.67
2018-11-07T10:25:37.526Z,1.73
2018-11-07T10:28:06.303Z,0.90
2018-11-07T10:30:34.221Z,1.07
2018-11-07T10:33:02.651Z,0.73
2018-11-07T10:35:30.639Z,1.10
2018-11-07T10:37:58.626Z,1.10
2018-11-07T10:40:26.462Z,1.10
2018-11-07T10:42:54.294Z,1.20
2018-11-07T10:45:22.170Z,1.10
2018-11-07T10:47:51.186Z,1.03
2018-11-07T10:50:20.179Z,0.90
2018-11-07T10:52:48.653Z,0.80
2018-11-07T10:55:17.245Z,0.90
2018-11-07T10:57:45.190Z,1.40
2018-11-07T11:00:18.742Z,0.97
2018-11-07T11:02:51.748Z,1.10
2018-11-07T11:05:20.407Z,0.90
2018-11-07T11:07:48.136Z,0.67
2018-11-07T11:10:15.965Z,0.73
2018-11-07T11:12:45.472Z,0.97
2018-11-07T11:15:13.351Z,1.07
2018-11-07T11:17:41.475Z,1.07
2018-11-07T11:20:10.818Z,0.93
2018-11-07T11:22:38.700Z,0.90
2018-11-07T11:25:06.580Z,0.93
2018-11-07T11:27:34.496Z,0.80
2018-11-07T11:30:02.354Z,0.87
2018-11-07T11:32:30.233Z,1.03
2018-11-07T11:34:58.267Z,1.20
2018-11-07T11:37:26.632Z,1.30
2018-11-07T11:39:55.082Z,1.00
2018-11-07T11:42:22.909Z,1.00
2018-11-07T11:44:50.746Z,0.87
2018-11-07T11:47:18.611Z,0.80
2018-11-07T11:49:46.531Z,1.20
2018-11-07T11:52:14.428Z,1.20
2018-11-07T11:54:42.255Z,0.90
2018-11-07T11:57:10.143Z,1.03
2018-11-07T11:59:38.145Z,0.87
2018-11-07T12:02:05.878Z,0.87
2018-11-07T12:04:33.720Z,0.90
2018-11-07T12:07:01.697Z,0.83
2018-11-07T12:09:29.564Z,1.10
2018-11-07T12:11:57.452Z,1.07
2018-11-07T12:14:25.323Z,1.43
2018-11-07T12:16:53.191Z,1.40
2018-11-07T12:19:21.036Z,0.90
2018-11-07T12:21:49.126Z,1.10
2018-11-07T12:24:17.049Z,0.87
2018-11-07T12:26:45.957Z,1.10
2018-11-07T12:29:14.317Z,1.50
2018-11-07T12:31:42.198Z,1.13
2018-11-07T12:34:10.033Z,1.10
2018-11-07T12:36:37.852Z,1.40
2018-11-07T12:39:07.409Z,1.10
2018-11-07T12:41:35.398Z,2.27
2018-11-07T12:44:03.592Z,1.60
2018-11-07T12:46:31.432Z,1.77
2018-11-07T12:48:59.424Z,1.20
2018-11-07T12:51:27.273Z,0.90
2018-11-07T12:53:55.251Z,0.63
2018-11-07T12:56:23.154Z,1.00
2018-11-07T12:58:51.144Z,1.30
2018-11-07T13:01:18.995Z,1.07
2018-11-07T13:03:47.033Z,0.80
2018-11-07T13:06:14.889Z,0.80
2018-11-07T13:08:42.739Z,1.30
2018-11-07T13:11:10.596Z,0.90
2018-11-07T13:13:38.585Z,0.80
2018-11-07T13:16:06.522Z,1.40
2018-11-07T13:18:34.476Z,1.10
2018-11-07T13:21:02.327Z,1.20
2018-11-07T13:23:30.198Z,1.00
2018-11-07T13:25:58.137Z,1.03
2018-11-07T13:28:26.092Z,0.73
2018-11-07T13:30:53.904Z,1.00
2018-11-07T13:33:21.773Z,0.90
2018-11-07T13:35:49.649Z,1.00
2018-11-07T13:38:17.768Z,0.70
2018-11-07T13:40:45.433Z,1.10
2018-11-07T13:43:13.291Z,0.90
2018-11-07T13:45:41.140Z,3.07
2018-11-07T13:48:09.020Z,4.60
2018-11-07T13:50:36.954Z,6.83
2018-11-07T13:53:05.338Z,2.97
2018-11-07T13:55:33.174Z,1.57
2018-11-07T13:58:01.155Z,1.40
2018-11-07T14:00:29.059Z,1.40
2018-11-07T14:02:56.922Z,1.40
2018-11-07T14:05:24.871Z,1.30
2018-11-07T14:07:52.699Z,1.67
2018-11-07T14:10:21.912Z,1.40
2018-11-07T14:12:50.122Z,1.50
2018-11-07T14:15:18.013Z,1.30
2018-11-07T14:17:46.237Z,1.60
2018-11-07T14:20:14.086Z,2.07
2018-11-07T14:22:42.355Z,1.40
2018-11-07T14:25:11.073Z,2.70
2018-11-07T14:27:39.160Z,3.47
2018-11-07T14:30:08.460Z,1.03
2018-11-07T14:32:36.523Z,1.50
2018-11-07T14:35:04.508Z,3.47
2018-11-07T14:37:32.351Z,6.57
2018-11-07T14:40:00.215Z,1.70
2018-11-07T14:42:28.075Z,8.63
2018-11-07T14:44:55.909Z,2.67
2018-11-07T14:47:23.748Z,1.20
2018-11-07T14:49:51.616Z,2.00
2018-11-07T14:52:19.446Z,1.20
2018-11-07T14:54:47.281Z,1.10
2018-11-07T14:57:15.263Z,1.40
2018-11-07T14:59:43.094Z,1.30
2018-11-07T15:02:10.987Z,1.40
2018-11-07T15:04:39.163Z,0.93
2018-11-07T15:07:07.085Z,0.97
2018-11-07T15:09:35.009Z,1.70
2018-11-07T15:12:02.879Z,1.17
2018-11-07T15:14:30.696Z,1.53
2018-11-07T15:16:58.549Z,1.50
2018-11-07T15:19:26.387Z,1.27
2018-11-07T15:21:54.279Z,1.70
2018-11-07T15:24:22.127Z,1.60
2018-11-07T15:26:50.004Z,1.53
2018-11-07T15:29:17.916Z,1.40
2018-11-07T15:31:45.815Z,2.00
2018-11-07T15:34:14.199Z,1.80
2018-11-07T15:36:42.153Z,1.30
2018-11-07T15:39:10.964Z,1.20
2018-11-07T15:41:38.946Z,1.40
2018-11-07T15:44:06.880Z,1.23
2018-11-07T15:46:34.739Z,1.40
2018-11-07T15:49:02.788Z,1.30
2018-11-07T15:51:36.409Z,1.60
2018-11-07T15:54:04.804Z,1.10
2018-11-07T15:56:32.761Z,1.20
2018-11-07T15:59:01.122Z,0.87
2018-11-07T16:01:29.076Z,0.90
2018-11-07T16:03:58.021Z,0.90
2018-11-07T16:06:26.378Z,1.00
2018-11-07T16:08:55.560Z,1.20
2018-11-07T16:11:23.415Z,1.00
2018-11-07T16:13:51.376Z,1.00
2018-11-07T16:16:19.205Z,1.30
2018-11-07T16:18:47.195Z,1.40
2018-11-07T16:21:15.062Z,1.53
2018-11-07T16:23:42.907Z,1.20
2018-11-07T16:26:10.765Z,0.90
2018-11-07T16:28:38.644Z,1.40
2018-11-07T16:31:06.555Z,1.40
2018-11-07T16:33:35.811Z,1.00
2018-11-07T16:36:03.696Z,1.10
2018-11-07T16:38:31.567Z,0.90
2018-11-07T16:40:59.478Z,1.07
2018-11-07T16:43:27.461Z,1.03
2018-11-07T16:45:55.306Z,0.83
2018-11-07T16:48:23.226Z,1.17
2018-11-07T16:50:51.131Z,0.90
2018-11-07T16:53:18.989Z,0.80
2018-11-07T16:55:46.880Z,0.93
2018-11-07T16:58:14.825Z,0.70
2018-11-07T17:00:42.736Z,0.97
2018-11-07T17:03:10.615Z,0.70
2018-11-07T17:05:38.495Z,0.80
2018-11-07T17:08:06.344Z,0.70
2018-11-07T17:10:34.496Z,0.80
2018-11-07T17:13:02.649Z,0.87
2018-11-07T17:15:30.962Z,0.80
2018-11-07T17:17:59.559Z,0.80
2018-11-07T17:20:27.486Z,0.60
2018-11-07T17:22:55.816Z,0.90
2018-11-07T17:25:23.652Z,0.77
2018-11-07T17:27:51.489Z,0.70
2018-11-07T17:30:19.679Z,1.10
2018-11-07T17:32:47.643Z,4.60
2018-11-07T17:35:16.855Z,0.90
2018-11-07T17:37:45.183Z,0.77
2018-11-07T17:40:15.022Z,0.70
2018-11-07T17:42:42.906Z,0.83
2018-11-07T17:45:12.265Z,0.70
2018-11-07T17:47:40.829Z,2.23
2018-11-07T17:50:09.649Z,2.70
2018-11-07T17:52:37.693Z,5.20
2018-11-07T17:55:05.740Z,1.30
2018-11-07T17:57:33.604Z,1.00
2018-11-07T18:00:01.433Z,1.30
2018-11-07T18:02:29.277Z,1.00
2018-11-07T18:04:57.099Z,1.00
2018-11-07T18:07:24.952Z,0.83
2018-11-07T18:09:52.859Z,1.50
2018-11-07T18:12:20.659Z,1.23
2018-11-07T18:14:48.508Z,0.97
2018-11-07T18:17:16.424Z,0.90
2018-11-07T18:19:44.272Z,1.00
2018-11-07T18:22:12.143Z,0.80
2018-11-07T18:24:40.007Z,0.67
2018-11-07T18:27:07.899Z,1.33
2018-11-07T18:29:35.740Z,1.03
2018-11-07T18:32:03.710Z,1.30
2018-11-07T18:34:34.508Z,1.10
2018-11-07T18:37:02.353Z,1.07
2018-11-07T18:39:30.183Z,1.93
2018-11-07T18:41:58.017Z,0.90
2018-11-07T18:44:25.910Z,0.93
2018-11-07T18:46:53.761Z,1.20
2018-11-07T18:49:21.761Z,1.30
2018-11-07T18:51:49.620Z,1.10
2018-11-07T18:54:17.460Z,0.93
2018-11-07T18:56:45.295Z,0.90
2018-11-07T18:59:13.131Z,1.00
2018-11-07T19:01:40.996Z,1.50
2018-11-07T19:04:08.882Z,2.03
2018-11-07T19:06:36.788Z,1.87
2018-11-07T19:09:05.768Z,1.70
2018-11-07T19:11:33.657Z,1.63
2018-11-07T19:14:01.491Z,1.70
2018-11-07T19:16:29.334Z,1.70
2018-11-07T19:18:57.201Z,2.00
2018-11-07T19:21:25.549Z,1.70
2018-11-07T19:23:53.460Z,1.80
2018-11-07T19:26:21.267Z,1.97
2018-11-07T19:28:49.113Z,2.17
2018-11-07T19:31:17.001Z,2.43
2018-11-07T19:33:44.844Z,1.80
2018-11-07T19:36:12.799Z,1.83
2018-11-07T19:38:40.684Z,1.17
2018-11-07T19:41:08.556Z,0.97
2018-11-07T19:43:36.382Z,1.10
2018-11-07T19:46:04.239Z,1.47
2018-11-07T19:48:32.104Z,1.50
2018-11-07T19:50:59.972Z,1.30
2018-11-07T19:53:27.878Z,1.37
2018-11-07T19:55:55.728Z,1.67
2018-11-07T19:58:23.606Z,1.63
2018-11-07T20:00:51.537Z,1.70
2018-11-07T20:03:19.395Z,1.50
2018-11-07T20:05:47.275Z,1.23
2018-11-07T20:08:15.239Z,1.60
2018-11-07T20:10:43.081Z,2.50
2018-11-07T20:13:10.916Z,1.50
2018-11-07T20:15:38.751Z,1.50
2018-11-07T20:18:06.606Z,1.60
2018-11-07T20:20:34.434Z,1.63
2018-11-07T20:23:02.291Z,1.80
2018-11-07T20:25:30.456Z,1.73
2018-11-07T20:27:58.307Z,1.63
2018-11-07T20:30:26.171Z,1.80
2018-11-07T20:32:54.040Z,1.50
2018-11-07T20:35:22.407Z,1.40
2018-11-07T20:37:50.268Z,1.53
2018-11-07T20:40:19.576Z,1.80
2018-11-07T20:42:47.432Z,1.80
2018-11-07T20:45:16.152Z,2.20
2018-11-07T20:47:44.009Z,1.60
2018-11-07T20:55:05.200Z,1.77
2018-11-07T20:57:33.127Z,1.80
2018-11-07T21:00:00.989Z,1.90
2018-11-07T21:02:28.857Z,2.20
2018-11-07T21:04:56.678Z,2.27
2018-11-07T21:07:24.519Z,3.00
2018-11-07T21:09:52.351Z,2.90
2018-11-07T21:12:20.210Z,3.23
2018-11-07T21:14:48.051Z,3.10
2018-11-07T21:17:15.879Z,2.93
2018-11-07T21:19:43.718Z,4.37
2018-11-07T21:22:12.825Z,3.80
2018-11-07T21:24:40.685Z,3.53
2018-11-07T21:27:08.567Z,3.20
2018-11-07T21:29:36.521Z,3.00
2018-11-07T21:32:04.440Z,3.27
2018-11-07T21:34:32.265Z,3.40
2018-11-07T21:37:00.115Z,3.00
2018-11-07T21:39:28.076Z,2.77
2018-11-07T21:41:55.909Z,4.13
2018-11-07T21:44:23.827Z,3.40
2018-11-07T21:46:51.655Z,3.70
2018-11-07T21:49:19.491Z,3.07
2018-11-07T21:51:47.323Z,3.27
2018-11-07T21:54:15.153Z,3.10
2018-11-07T21:56:42.963Z,4.10
2018-11-07T21:59:10.799Z,3.23
2018-11-07T22:01:39.134Z,3.97
2018-11-07T22:04:07.247Z,3.27
2018-11-07T22:06:35.091Z,3.50
2018-11-07T22:09:03.494Z,3.63
2018-11-07T22:11:31.403Z,3.93
2018-11-07T22:13:59.282Z,3.73
2018-11-07T22:16:27.113Z,4.37
2018-11-07T22:18:54.931Z,4.80
2018-11-07T22:21:22.886Z,4.20
2018-11-07T22:23:50.791Z,4.20
2018-11-07T22:26:19.392Z,4.73
2018-11-07T22:28:47.251Z,4.50
2018-11-07T22:31:15.081Z,4.20
2018-11-07T22:33:43.051Z,4.07
2018-11-07T22:36:11.619Z,4.63
2018-11-07T22:38:39.983Z,4.70
2018-11-07T22:41:07.942Z,3.80
2018-11-07T22:43:35.795Z,4.23
2018-11-07T22:46:03.646Z,3.57
2018-11-07T22:48:31.459Z,4.07
2018-11-07T22:50:59.287Z,3.67
2018-11-07T22:53:27.392Z,3.30
2018-11-07T22:55:55.248Z,3.40
2018-11-07T22:58:23.574Z,3.17
2018-11-07T23:00:56.625Z,3.67
2018-11-07T23:03:24.474Z,3.43
2018-11-07T23:05:53.109Z,2.80
2018-11-07T23:08:20.945Z,3.60
2018-11-07T23:10:48.790Z,3.80
2018-11-07T23:13:16.645Z,3.50
2018-11-07T23:15:46.902Z,3.43
2018-11-07T23:18:15.108Z,3.87
2018-11-07T23:20:42.968Z,3.40
2018-11-07T23:23:10.799Z,3.70
2018-11-07T23:25:38.647Z,3.60
2018-11-07T23:28:06.473Z,4.30
2018-11-07T23:30:34.304Z,4.37
2018-11-07T23:33:02.566Z,4.27
2018-11-07T23:35:31.192Z,5.40
2018-11-07T23:37:59.880Z,5.23
2018-11-07T23:40:28.273Z,5.77
2018-11-07T23:42:56.140Z,6.10
2018-11-07T23:45:23.966Z,6.00
2018-11-07T23:47:52.389Z,6.43
2018-11-07T23:50:20.207Z,5.90
2018-11-07T23:52:48.936Z,5.80
2018-11-07T23:55:18.437Z,4.83
2018-11-07T23:57:46.931Z,5.90
